sensor_id;sensor_type;location;lat;lon;timestamp;pressure;altitude;pressure_sealevel;temperature;humidity
80911;BME280;70359;51.420;7.032;2023-08-20T00:00:01;1006.066;;;22.08;64.33496
80911;BME280;70359;51.420;7.032;2023-08-20T00:02:26;1006.12;;;22.06;64.35352
80911;BME280;70359;51.420;7.032;2023-08-20T00:04:51;1006.148;;;22.07;64.42383
80911;BME280;70359;51.420;7.032;2023-08-20T00:07:16;1006.107;;;22.04;64.79199
80911;BME280;70359;51.420;7.032;2023-08-20T00:09:41;1006.105;;;22.06;64.7832
80911;BME280;70359;51.420;7.032;2023-08-20T00:12:06;1006.01;;;22.04;65.0127
80911;BME280;70359;51.420;7.032;2023-08-20T00:16:56;1006.027;;;22.05;64.57422
80911;BME280;70359;51.420;7.032;2023-08-20T00:19:21;1006.038;;;22.03;64.76758
80911;BME280;70359;51.420;7.032;2023-08-20T00:21:46;1006.038;;;22.03;64.7793
80911;BME280;70359;51.420;7.032;2023-08-20T00:24:12;1006.015;;;22.03;64.94141
80911;BME280;70359;51.420;7.032;2023-08-20T00:26:36;1006.008;;;22.04;64.91992
80911;BME280;70359;51.420;7.032;2023-08-20T00:29:01;1006.043;;;22.04;65.00098
80911;BME280;70359;51.420;7.032;2023-08-20T00:31:26;1006.076;;;22.04;64.86133
80911;BME280;70359;51.420;7.032;2023-08-20T00:33:56;1006.041;;;22.02;64.88086
80911;BME280;70359;51.420;7.032;2023-08-20T00:36:16;1006.086;;;22.02;64.80078
80911;BME280;70359;51.420;7.032;2023-08-20T00:38:41;1006.078;;;21.99;65.07422
80911;BME280;70359;51.420;7.032;2023-08-20T00:41:06;1006.128;;;21.99;64.96973
80911;BME280;70359;51.420;7.032;2023-08-20T00:43:31;1006.121;;;21.98;64.94531
80911;BME280;70359;51.420;7.032;2023-08-20T00:45:58;1006.12;;;21.99;65.07422
80911;BME280;70359;51.420;7.032;2023-08-20T00:48:21;1006.108;;;21.96;65.10547
80911;BME280;70359;51.420;7.032;2023-08-20T00:50:46;1006.028;;;21.97;64.61914
80911;BME280;70359;51.420;7.032;2023-08-20T00:53:11;1005.929;;;21.94;64.92871
80911;BME280;70359;51.420;7.032;2023-08-20T00:55:36;1005.912;;;21.94;64.5459
80911;BME280;70359;51.420;7.032;2023-08-20T00:58:01;1005.931;;;21.92;64.77539
80911;BME280;70359;51.420;7.032;2023-08-20T01:00:26;1005.992;;;21.94;64.75488
80911;BME280;70359;51.420;7.032;2023-08-20T01:02:51;1006.018;;;21.91;65.02734
80911;BME280;70359;51.420;7.032;2023-08-20T01:05:16;1005.991;;;21.94;64.8125
80911;BME280;70359;51.420;7.032;2023-08-20T01:07:48;1005.996;;;21.9;65.08594
80911;BME280;70359;51.420;7.032;2023-08-20T01:10:08;1005.955;;;21.92;64.94922
80911;BME280;70359;51.420;7.032;2023-08-20T01:12:31;1005.99;;;21.89;65.00195
80911;BME280;70359;51.420;7.032;2023-08-20T01:14:56;1005.964;;;21.92;64.65918
80911;BME280;70359;51.420;7.032;2023-08-20T01:17:21;1006.012;;;21.91;64.96973
80911;BME280;70359;51.420;7.032;2023-08-20T01:19:46;1005.94;;;21.93;64.46387
80911;BME280;70359;51.420;7.032;2023-08-20T01:24:43;1005.892;;;21.92;64.53223
80911;BME280;70359;51.420;7.032;2023-08-20T01:27:06;1005.953;;;21.9;64.63379
80911;BME280;70359;51.420;7.032;2023-08-20T01:29:26;1005.983;;;21.9;64.4248
80911;BME280;70359;51.420;7.032;2023-08-20T01:31:51;1005.976;;;21.91;64.54102
80911;BME280;70359;51.420;7.032;2023-08-20T01:34:16;1005.966;;;21.9;64.79492
80911;BME280;70359;51.420;7.032;2023-08-20T01:36:41;1006.012;;;21.89;64.42188
80911;BME280;70359;51.420;7.032;2023-08-20T01:39:06;1006.015;;;21.87;64.36133
80911;BME280;70359;51.420;7.032;2023-08-20T01:41:31;1006.051;;;21.87;64.58301
80911;BME280;70359;51.420;7.032;2023-08-20T01:43:56;1006.048;;;21.85;64.64844
80911;BME280;70359;51.420;7.032;2023-08-20T01:46:21;1006.079;;;21.87;64.74414
80911;BME280;70359;51.420;7.032;2023-08-20T01:48:46;1006.083;;;21.85;64.9502
80911;BME280;70359;51.420;7.032;2023-08-20T01:51:11;1006.027;;;21.88;64.74512
80911;BME280;70359;51.420;7.032;2023-08-20T01:53:36;1005.973;;;21.85;64.44043
80911;BME280;70359;51.420;7.032;2023-08-20T01:56:01;1005.974;;;21.84;63.90527
80911;BME280;70359;51.420;7.032;2023-08-20T01:58:26;1005.97;;;21.8;64.1543
80911;BME280;70359;51.420;7.032;2023-08-20T02:00:51;1005.952;;;21.79;63.93359
80911;BME280;70359;51.420;7.032;2023-08-20T02:03:16;1005.964;;;21.75;64.13477
80911;BME280;70359;51.420;7.032;2023-08-20T02:05:41;1006.013;;;21.76;64.61328
80911;BME280;70359;51.420;7.032;2023-08-20T02:08:06;1006.004;;;21.74;64.97949
80911;BME280;70359;51.420;7.032;2023-08-20T02:10:31;1006.012;;;21.75;64.9248
80911;BME280;70359;51.420;7.032;2023-08-20T02:12:56;1006.022;;;21.72;64.97852
80911;BME280;70359;51.420;7.032;2023-08-20T02:15:21;1006.037;;;21.75;64.66992
80911;BME280;70359;51.420;7.032;2023-08-20T02:17:46;1006.083;;;21.71;64.31543
80911;BME280;70359;51.420;7.032;2023-08-20T02:20:12;1006.143;;;21.69;64.2793
80911;BME280;70359;51.420;7.032;2023-08-20T02:22:36;1006.18;;;21.64;64.41016
80911;BME280;70359;51.420;7.032;2023-08-20T02:25:01;1006.162;;;21.65;64.55078
80911;BME280;70359;51.420;7.032;2023-08-20T02:27:26;1006.228;;;21.62;64.5918
80911;BME280;70359;51.420;7.032;2023-08-20T02:29:51;1006.266;;;21.62;64.4541
80911;BME280;70359;51.420;7.032;2023-08-20T02:32:16;1006.265;;;21.59;64.91309
80911;BME280;70359;51.420;7.032;2023-08-20T02:34:43;1006.32;;;21.62;65.02246
80911;BME280;70359;51.420;7.032;2023-08-20T02:37:06;1006.373;;;21.6;65.13379
80911;BME280;70359;51.420;7.032;2023-08-20T02:39:31;1006.467;;;21.62;64.96289
80911;BME280;70359;51.420;7.032;2023-08-20T02:41:56;1006.515;;;21.62;64.95313
80911;BME280;70359;51.420;7.032;2023-08-20T02:44:21;1006.528;;;21.62;65.24219
80911;BME280;70359;51.420;7.032;2023-08-20T02:46:46;1006.539;;;21.64;65.42871
80911;BME280;70359;51.420;7.032;2023-08-20T02:49:11;1006.503;;;21.64;65.44141
80911;BME280;70359;51.420;7.032;2023-08-20T02:51:36;1006.511;;;21.67;65.7002
80911;BME280;70359;51.420;7.032;2023-08-20T02:54:01;1006.477;;;21.68;65.77148
80911;BME280;70359;51.420;7.032;2023-08-20T02:56:26;1006.476;;;21.7;65.60059
80911;BME280;70359;51.420;7.032;2023-08-20T02:58:51;1006.45;;;21.68;65.72559
80911;BME280;70359;51.420;7.032;2023-08-20T03:01:23;1006.439;;;21.73;65.71973
80911;BME280;70359;51.420;7.032;2023-08-20T03:03:41;1006.435;;;21.7;65.50781
80911;BME280;70359;51.420;7.032;2023-08-20T03:06:06;1006.418;;;21.74;65.55957
80911;BME280;70359;51.420;7.032;2023-08-20T03:08:31;1006.453;;;21.73;65.67383
80911;BME280;70359;51.420;7.032;2023-08-20T03:10:56;1006.45;;;21.75;65.58496
80911;BME280;70359;51.420;7.032;2023-08-20T03:13:21;1006.426;;;21.74;65.68652
80911;BME280;70359;51.420;7.032;2023-08-20T03:15:46;1006.433;;;21.76;65.59668
80911;BME280;70359;51.420;7.032;2023-08-20T03:18:11;1006.513;;;21.74;65.54785
80911;BME280;70359;51.420;7.032;2023-08-20T03:20:36;1006.491;;;21.75;65.35352
80911;BME280;70359;51.420;7.032;2023-08-20T03:23:02;1006.428;;;21.74;65.37402
80911;BME280;70359;51.420;7.032;2023-08-20T03:25:27;1006.39;;;21.75;65.35156
80911;BME280;70359;51.420;7.032;2023-08-20T03:27:52;1006.442;;;21.71;65.46289
80911;BME280;70359;51.420;7.032;2023-08-20T03:30:17;1006.504;;;21.7;65.18457
80911;BME280;70359;51.420;7.032;2023-08-20T03:32:42;1006.57;;;21.67;65.48047
80911;BME280;70359;51.420;7.032;2023-08-20T03:35:07;1006.604;;;21.71;65.17383
80911;BME280;70359;51.420;7.032;2023-08-20T03:37:32;1006.603;;;21.66;65.39844
80911;BME280;70359;51.420;7.032;2023-08-20T03:39:57;1006.56;;;21.69;65.60938
80911;BME280;70359;51.420;7.032;2023-08-20T03:42:22;1006.561;;;21.66;65.6875
80911;BME280;70359;51.420;7.032;2023-08-20T03:44:47;1006.537;;;21.68;65.70215
80911;BME280;70359;51.420;7.032;2023-08-20T03:47:12;1006.581;;;21.66;65.87305
80911;BME280;70359;51.420;7.032;2023-08-20T03:49:37;1006.56;;;21.69;65.64648
80911;BME280;70359;51.420;7.032;2023-08-20T03:52:02;1006.526;;;21.67;65.63086
80911;BME280;70359;51.420;7.032;2023-08-20T03:54:27;1006.495;;;21.68;65.2041
80911;BME280;70359;51.420;7.032;2023-08-20T03:56:52;1006.499;;;21.67;65.0166
80911;BME280;70359;51.420;7.032;2023-08-20T03:59:17;1006.545;;;21.65;65.3623
80911;BME280;70359;51.420;7.032;2023-08-20T04:01:42;1006.552;;;21.65;65.47754
80911;BME280;70359;51.420;7.032;2023-08-20T04:04:07;1006.594;;;21.64;65.35938
80911;BME280;70359;51.420;7.032;2023-08-20T04:06:32;1006.583;;;21.64;65.12891
80911;BME280;70359;51.420;7.032;2023-08-20T04:08:57;1006.609;;;21.62;65.3457
80911;BME280;70359;51.420;7.032;2023-08-20T04:11:22;1006.659;;;21.62;65.25391
80911;BME280;70359;51.420;7.032;2023-08-20T04:13:47;1006.666;;;21.6;65.28418
80911;BME280;70359;51.420;7.032;2023-08-20T04:16:12;1006.738;;;21.6;64.99512
80911;BME280;70359;51.420;7.032;2023-08-20T04:18:37;1006.728;;;21.54;65.10352
80911;BME280;70359;51.420;7.032;2023-08-20T04:21:02;1006.728;;;21.55;65.06934
80911;BME280;70359;51.420;7.032;2023-08-20T04:23:27;1006.667;;;21.52;65.29785
80911;BME280;70359;51.420;7.032;2023-08-20T04:25:52;1006.665;;;21.54;65.05566
80911;BME280;70359;51.420;7.032;2023-08-20T04:28:17;1006.62;;;21.5;65.27051
80911;BME280;70359;51.420;7.032;2023-08-20T04:30:42;1006.678;;;21.51;64.98242
80911;BME280;70359;51.420;7.032;2023-08-20T04:33:07;1006.818;;;21.46;64.99707
80911;BME280;70359;51.420;7.032;2023-08-20T04:35:32;1006.848;;;21.46;65.22949
80911;BME280;70359;51.420;7.032;2023-08-20T04:37:57;1006.85;;;21.43;65.57422
80911;BME280;70359;51.420;7.032;2023-08-20T04:40:22;1006.853;;;21.46;65.04492
80911;BME280;70359;51.420;7.032;2023-08-20T04:42:47;1006.909;;;21.43;65.47949
80911;BME280;70359;51.420;7.032;2023-08-20T04:45:12;1006.917;;;21.45;65.30859
80911;BME280;70359;51.420;7.032;2023-08-20T04:47:37;1006.925;;;21.42;65.55957
80911;BME280;70359;51.420;7.032;2023-08-20T04:50:02;1006.89;;;21.47;65.46289
80911;BME280;70359;51.420;7.032;2023-08-20T04:52:27;1006.898;;;21.45;65.74902
80911;BME280;70359;51.420;7.032;2023-08-20T04:54:52;1006.895;;;21.48;65.69629
80911;BME280;70359;51.420;7.032;2023-08-20T04:57:17;1006.894;;;21.47;65.90332
80911;BME280;70359;51.420;7.032;2023-08-20T04:59:42;1006.907;;;21.5;65.62988
80911;BME280;70359;51.420;7.032;2023-08-20T05:02:07;1006.896;;;21.48;65.83398
80911;BME280;70359;51.420;7.032;2023-08-20T05:04:32;1006.898;;;21.49;65.41992
80911;BME280;70359;51.420;7.032;2023-08-20T05:06:57;1006.936;;;21.49;65.53711
80911;BME280;70359;51.420;7.032;2023-08-20T05:09:22;1006.95;;;21.5;65.50195
80911;BME280;70359;51.420;7.032;2023-08-20T05:11:47;1006.941;;;21.5;65.4668
80911;BME280;70359;51.420;7.032;2023-08-20T05:14:12;1006.99;;;21.51;65.61914
80911;BME280;70359;51.420;7.032;2023-08-20T05:16:37;1006.94;;;21.52;65.72461
80911;BME280;70359;51.420;7.032;2023-08-20T05:19:02;1006.992;;;21.5;65.93066
80911;BME280;70359;51.420;7.032;2023-08-20T05:21:27;1006.971;;;21.53;65.99219
80911;BME280;70359;51.420;7.032;2023-08-20T05:23:52;1006.985;;;21.52;65.95801
80911;BME280;70359;51.420;7.032;2023-08-20T05:26:17;1006.969;;;21.57;65.95215
80911;BME280;70359;51.420;7.032;2023-08-20T05:28:42;1006.987;;;21.54;65.89063
80911;BME280;70359;51.420;7.032;2023-08-20T05:31:07;1006.981;;;21.57;65.8252
80911;BME280;70359;51.420;7.032;2023-08-20T05:33:32;1006.999;;;21.57;66.14941
80911;BME280;70359;51.420;7.032;2023-08-20T05:35:57;1007.034;;;21.6;66.00293
80911;BME280;70359;51.420;7.032;2023-08-20T05:38:22;1007.03;;;21.6;66.18848
80911;BME280;70359;51.420;7.032;2023-08-20T05:40:47;1007.007;;;21.62;65.99512
80911;BME280;70359;51.420;7.032;2023-08-20T05:43:12;1007.028;;;21.62;66.26074
80911;BME280;70359;51.420;7.032;2023-08-20T05:45:37;1007.07;;;21.67;66.42871
80911;BME280;70359;51.420;7.032;2023-08-20T05:48:02;1007.048;;;21.67;66.73145
80911;BME280;70359;51.420;7.032;2023-08-20T05:50:27;1007.025;;;21.7;66.59668
80911;BME280;70359;51.420;7.032;2023-08-20T05:52:52;1007.038;;;21.67;66.99805
80911;BME280;70359;51.420;7.032;2023-08-20T05:55:17;1007.033;;;21.74;67.08789
80911;BME280;70359;51.420;7.032;2023-08-20T05:57:42;1007.049;;;21.73;67.22559
80911;BME280;70359;51.420;7.032;2023-08-20T06:00:07;1007.007;;;21.79;67.62891
80911;BME280;70359;51.420;7.032;2023-08-20T06:04:57;1007.041;;;21.83;68.05273
80911;BME280;70359;51.420;7.032;2023-08-20T06:07:22;1007.021;;;21.9;67.99414
80911;BME280;70359;51.420;7.032;2023-08-20T06:09:47;1006.999;;;21.95;67.93164
80911;BME280;70359;51.420;7.032;2023-08-20T06:12:12;1006.993;;;21.97;68.27051
80911;BME280;70359;51.420;7.032;2023-08-20T06:14:37;1007.025;;;22.03;68.04785
80911;BME280;70359;51.420;7.032;2023-08-20T06:17:04;1006.987;;;22.07;68.19141
80911;BME280;70359;51.420;7.032;2023-08-20T06:19:27;1006.999;;;22.1;68.38379
80911;BME280;70359;51.420;7.032;2023-08-20T06:21:52;1006.949;;;22.14;68.57422
80911;BME280;70359;51.420;7.032;2023-08-20T06:24:17;1006.979;;;22.08;68.56641
80911;BME280;70359;51.420;7.032;2023-08-20T06:26:42;1006.991;;;22.15;68.58691
80911;BME280;70359;51.420;7.032;2023-08-20T06:29:07;1006.992;;;22.22;68.60938
80911;BME280;70359;51.420;7.032;2023-08-20T06:31:32;1006.987;;;22.28;68.30664
80911;BME280;70359;51.420;7.032;2023-08-20T06:33:57;1006.996;;;22.3;68.63184
80911;BME280;70359;51.420;7.032;2023-08-20T06:36:22;1007.065;;;22.42;68.21094
80911;BME280;70359;51.420;7.032;2023-08-20T06:38:47;1007.092;;;22.42;68.21094
80911;BME280;70359;51.420;7.032;2023-08-20T06:41:12;1007.113;;;22.55;68.33398
80911;BME280;70359;51.420;7.032;2023-08-20T06:43:37;1007.128;;;22.54;68.05566
80911;BME280;70359;51.420;7.032;2023-08-20T06:46:02;1007.153;;;22.65;67.59668
80911;BME280;70359;51.420;7.032;2023-08-20T06:48:27;1007.151;;;22.66;67.67773
80911;BME280;70359;51.420;7.032;2023-08-20T06:50:52;1007.215;;;22.77;67.63672
80911;BME280;70359;51.420;7.032;2023-08-20T06:53:17;1007.201;;;22.78;67.53418
80911;BME280;70359;51.420;7.032;2023-08-20T06:55:42;1007.208;;;22.85;67.27734
80911;BME280;70359;51.420;7.032;2023-08-20T06:58:07;1007.275;;;22.91;67.58887
80911;BME280;70359;51.420;7.032;2023-08-20T07:00:32;1007.271;;;23;67.08008
80911;BME280;70359;51.420;7.032;2023-08-20T07:02:57;1007.267;;;23.01;67.12598
80911;BME280;70359;51.420;7.032;2023-08-20T07:05:22;1007.232;;;23.15;66.46191
80911;BME280;70359;51.420;7.032;2023-08-20T07:07:47;1007.228;;;23.05;66.5752
80911;BME280;70359;51.420;7.032;2023-08-20T07:10:12;1007.246;;;23.17;66.69824
80911;BME280;70359;51.420;7.032;2023-08-20T07:12:37;1007.247;;;23.21;66.25098
80911;BME280;70359;51.420;7.032;2023-08-20T07:15:02;1007.248;;;23.32;66.30176
80911;BME280;70359;51.420;7.032;2023-08-20T07:17:27;1007.237;;;23.34;66.6543
80911;BME280;70359;51.420;7.032;2023-08-20T07:19:52;1007.238;;;23.47;65.82422
80911;BME280;70359;51.420;7.032;2023-08-20T07:22:17;1007.221;;;23.55;65.80078
80911;BME280;70359;51.420;7.032;2023-08-20T07:24:42;1007.18;;;23.62;66.09082
80911;BME280;70359;51.420;7.032;2023-08-20T07:27:07;1007.15;;;23.67;65.62012
80911;BME280;70359;51.420;7.032;2023-08-20T07:29:32;1007.148;;;23.72;65.73242
80911;BME280;70359;51.420;7.032;2023-08-20T07:31:57;1007.132;;;23.84;65.72461
80911;BME280;70359;51.420;7.032;2023-08-20T07:34:22;1007.114;;;23.88;66.31348
80911;BME280;70359;51.420;7.032;2023-08-20T07:36:47;1007.122;;;23.97;65.94141
80911;BME280;70359;51.420;7.032;2023-08-20T07:39:12;1007.102;;;24.05;66.30371
80911;BME280;70359;51.420;7.032;2023-08-20T07:41:37;1007.106;;;24.13;66.87402
80911;BME280;70359;51.420;7.032;2023-08-20T07:44:02;1007.089;;;24.2;66.68555
80911;BME280;70359;51.420;7.032;2023-08-20T07:46:27;1007.149;;;24.28;66.33691
80911;BME280;70359;51.420;7.032;2023-08-20T07:48:52;1007.147;;;24.29;65.62891
80911;BME280;70359;51.420;7.032;2023-08-20T07:51:17;1007.123;;;24.44;65.5332
80911;BME280;70359;51.420;7.032;2023-08-20T07:53:42;1007.175;;;24.45;64.9873
80911;BME280;70359;51.420;7.032;2023-08-20T07:56:07;1007.154;;;24.57;63.05566
80911;BME280;70359;51.420;7.032;2023-08-20T07:58:32;1007.182;;;24.55;63.12305
80911;BME280;70359;51.420;7.032;2023-08-20T08:00:57;1007.199;;;24.63;62.44629
80911;BME280;70359;51.420;7.032;2023-08-20T08:03:24;1007.234;;;24.67;62.99902
80911;BME280;70359;51.420;7.032;2023-08-20T08:05:49;1007.182;;;24.76;62.3584
80911;BME280;70359;51.420;7.032;2023-08-20T08:08:12;1007.19;;;24.81;61.25488
80911;BME280;70359;51.420;7.032;2023-08-20T08:10:37;1007.247;;;24.91;61.33984
80911;BME280;70359;51.420;7.032;2023-08-20T08:13:02;1007.296;;;24.96;61.96484
80911;BME280;70359;51.420;7.032;2023-08-20T08:15:27;1007.327;;;25.03;60.87598
80911;BME280;70359;51.420;7.032;2023-08-20T08:17:52;1007.284;;;25.06;59.95801
80911;BME280;70359;51.420;7.032;2023-08-20T08:20:17;1007.286;;;25.2;61.09863
80911;BME280;70359;51.420;7.032;2023-08-20T08:22:42;1007.276;;;25.27;61.49414
80911;BME280;70359;51.420;7.032;2023-08-20T08:25:07;1007.255;;;25.37;61.95117
80911;BME280;70359;51.420;7.032;2023-08-20T08:27:32;1007.247;;;25.41;60.03809
80911;BME280;70359;51.420;7.032;2023-08-20T08:29:57;1007.251;;;25.46;56.91797
80911;BME280;70359;51.420;7.032;2023-08-20T08:32:22;1007.241;;;25.54;57.05762
80911;BME280;70359;51.420;7.032;2023-08-20T08:34:47;1007.289;;;25.61;58.35449
80911;BME280;70359;51.420;7.032;2023-08-20T08:37:12;1007.332;;;25.7;58.40137
80911;BME280;70359;51.420;7.032;2023-08-20T08:39:37;1007.353;;;25.74;57.45801
80911;BME280;70359;51.420;7.032;2023-08-20T08:42:03;1007.407;;;25.81;56.75195
80911;BME280;70359;51.420;7.032;2023-08-20T08:44:27;1007.375;;;25.88;53.53516
80911;BME280;70359;51.420;7.032;2023-08-20T08:46:52;1007.387;;;25.94;52.73145
80911;BME280;70359;51.420;7.032;2023-08-20T08:49:17;1007.338;;;25.92;53.15234
80911;BME280;70359;51.420;7.032;2023-08-20T08:51:42;1007.356;;;26;55.56641
80911;BME280;70359;51.420;7.032;2023-08-20T08:54:07;1007.323;;;26.06;55.32813
80911;BME280;70359;51.420;7.032;2023-08-20T08:56:32;1007.358;;;26.1;54.95801
80911;BME280;70359;51.420;7.032;2023-08-20T08:58:57;1007.364;;;26.07;53.9082
80911;BME280;70359;51.420;7.032;2023-08-20T09:01:22;1007.35;;;26.22;55.55859
80911;BME280;70359;51.420;7.032;2023-08-20T09:03:47;1007.373;;;26.2;56.82324
80911;BME280;70359;51.420;7.032;2023-08-20T09:06:12;1007.369;;;26.3;55.99121
80911;BME280;70359;51.420;7.032;2023-08-20T09:08:37;1007.383;;;26.26;55.87988
80911;BME280;70359;51.420;7.032;2023-08-20T09:11:02;1007.341;;;26.37;54.46094
80911;BME280;70359;51.420;7.032;2023-08-20T09:13:33;1007.323;;;26.34;55.8916
80911;BME280;70359;51.420;7.032;2023-08-20T09:15:54;1007.376;;;26.43;55.0332
80911;BME280;70359;51.420;7.032;2023-08-20T09:18:17;1007.334;;;26.41;55.76953
80911;BME280;70359;51.420;7.032;2023-08-20T09:20:42;1007.268;;;26.5;56.40332
80911;BME280;70359;51.420;7.032;2023-08-20T09:23:07;1007.285;;;26.5;56.4502
80911;BME280;70359;51.420;7.032;2023-08-20T09:25:32;1007.296;;;26.58;56.07227
80911;BME280;70359;51.420;7.032;2023-08-20T09:27:57;1007.286;;;26.58;55.26172
80911;BME280;70359;51.420;7.032;2023-08-20T09:30:22;1007.35;;;26.62;55.38477
80911;BME280;70359;51.420;7.032;2023-08-20T09:32:47;1007.427;;;26.65;55.85742
80911;BME280;70359;51.420;7.032;2023-08-20T09:35:17;1007.389;;;26.64;54.5293
80911;BME280;70359;51.420;7.032;2023-08-20T09:37:37;1007.398;;;26.6;55.27734
80911;BME280;70359;51.420;7.032;2023-08-20T09:40:03;1007.445;;;26.53;55.45508
80911;BME280;70359;51.420;7.032;2023-08-20T09:42:28;1007.476;;;26.48;55.95508
80911;BME280;70359;51.420;7.032;2023-08-20T09:44:52;1007.5;;;26.42;55.73633
80911;BME280;70359;51.420;7.032;2023-08-20T09:47:17;1007.523;;;26.4;56.03906
80911;BME280;70359;51.420;7.032;2023-08-20T09:49:43;1007.495;;;26.39;56.52051
80911;BME280;70359;51.420;7.032;2023-08-20T09:52:08;1007.503;;;26.39;56.55371
80911;BME280;70359;51.420;7.032;2023-08-20T09:54:34;1007.569;;;26.35;56.02051
80911;BME280;70359;51.420;7.032;2023-08-20T09:56:58;1007.553;;;26.37;55.95313
80911;BME280;70359;51.420;7.032;2023-08-20T09:59:23;1007.586;;;26.31;54.36133
80911;BME280;70359;51.420;7.032;2023-08-20T10:01:48;1007.569;;;26.3;54.25391
80911;BME280;70359;51.420;7.032;2023-08-20T10:04:13;1007.599;;;26.24;55.38574
80911;BME280;70359;51.420;7.032;2023-08-20T10:06:37;1007.615;;;26.24;55.84375
80911;BME280;70359;51.420;7.032;2023-08-20T10:09:03;1007.648;;;26.18;55.41309
80911;BME280;70359;51.420;7.032;2023-08-20T10:11:27;1007.616;;;26.17;55.62305
80911;BME280;70359;51.420;7.032;2023-08-20T10:13:52;1007.599;;;26.1;55.00488
80911;BME280;70359;51.420;7.032;2023-08-20T10:16:18;1007.606;;;26.12;55.72266
80911;BME280;70359;51.420;7.032;2023-08-20T10:18:42;1007.628;;;26.05;56.59375
80911;BME280;70359;51.420;7.032;2023-08-20T10:21:08;1007.677;;;26.05;55.64355
80911;BME280;70359;51.420;7.032;2023-08-20T10:23:33;1007.669;;;25.97;55.72754
80911;BME280;70359;51.420;7.032;2023-08-20T10:25:58;1007.673;;;25.98;55.83398
80911;BME280;70359;51.420;7.032;2023-08-20T10:28:24;1007.693;;;25.9;56.44531
80911;BME280;70359;51.420;7.032;2023-08-20T10:33:13;1007.633;;;25.81;57.02148
80911;BME280;70359;51.420;7.032;2023-08-20T10:38:12;1007.607;;;25.75;56.60352
80911;BME280;70359;51.420;7.032;2023-08-20T10:42:53;1007.59;;;25.78;57.22949
80911;BME280;70359;51.420;7.032;2023-08-20T10:45:18;1007.605;;;25.8;57.51172
80911;BME280;70359;51.420;7.032;2023-08-20T10:47:47;1007.581;;;25.83;57.77441
80911;BME280;70359;51.420;7.032;2023-08-20T10:50:08;1007.597;;;25.82;57.64258
80911;BME280;70359;51.420;7.032;2023-08-20T10:52:33;1007.602;;;25.88;57.95605
80911;BME280;70359;51.420;7.032;2023-08-20T10:54:58;1007.613;;;25.84;56.43848
80911;BME280;70359;51.420;7.032;2023-08-20T10:57:23;1007.593;;;25.9;56.14063
80911;BME280;70359;51.420;7.032;2023-08-20T10:59:50;1007.593;;;25.91;56.40137
80911;BME280;70359;51.420;7.032;2023-08-20T11:02:14;1007.585;;;25.98;55.57617
80911;BME280;70359;51.420;7.032;2023-08-20T11:04:38;1007.589;;;25.96;56.7002
80911;BME280;70359;51.420;7.032;2023-08-20T11:07:03;1007.611;;;26.01;56.71875
80911;BME280;70359;51.420;7.032;2023-08-20T11:09:28;1007.645;;;25.97;57.88477
80911;BME280;70359;51.420;7.032;2023-08-20T11:11:53;1007.668;;;26.01;57.01172
80911;BME280;70359;51.420;7.032;2023-08-20T11:14:18;1007.671;;;25.95;56.7334
80911;BME280;70359;51.420;7.032;2023-08-20T11:16:43;1007.701;;;25.96;56.79492
80911;BME280;70359;51.420;7.032;2023-08-20T11:19:08;1007.706;;;25.92;57.24512
80911;BME280;70359;51.420;7.032;2023-08-20T11:21:33;1007.713;;;25.92;57.07031
80911;BME280;70359;51.420;7.032;2023-08-20T11:23:58;1007.723;;;25.86;57.29688
80911;BME280;70359;51.420;7.032;2023-08-20T11:26:23;1007.719;;;25.94;56.65039
80911;BME280;70359;51.420;7.032;2023-08-20T11:28:49;1007.689;;;25.92;57.06934
80911;BME280;70359;51.420;7.032;2023-08-20T11:31:13;1007.622;;;25.97;56.67773
80911;BME280;70359;51.420;7.032;2023-08-20T11:33:38;1007.596;;;25.92;56.39063
80911;BME280;70359;51.420;7.032;2023-08-20T11:36:03;1007.63;;;25.98;55.34277
80911;BME280;70359;51.420;7.032;2023-08-20T11:38:28;1007.614;;;25.92;56.16797
80911;BME280;70359;51.420;7.032;2023-08-20T11:40:53;1007.607;;;25.98;56.57324
80911;BME280;70359;51.420;7.032;2023-08-20T11:43:18;1007.629;;;25.96;56.64258
80911;BME280;70359;51.420;7.032;2023-08-20T11:45:52;1007.638;;;25.99;56.23438
80911;BME280;70359;51.420;7.032;2023-08-20T11:48:08;1007.641;;;25.95;56.4873
80911;BME280;70359;51.420;7.032;2023-08-20T11:50:33;1007.607;;;25.99;56.32813
80911;BME280;70359;51.420;7.032;2023-08-20T11:52:58;1007.623;;;26.01;55.7334
80911;BME280;70359;51.420;7.032;2023-08-20T11:55:25;1007.546;;;26;55.06152
80911;BME280;70359;51.420;7.032;2023-08-20T11:57:52;1007.57;;;26.02;55.49805
80911;BME280;70359;51.420;7.032;2023-08-20T12:00:23;1007.548;;;26.03;55.55859
80911;BME280;70359;51.420;7.032;2023-08-20T12:02:38;1007.556;;;26.04;55.38379
80911;BME280;70359;51.420;7.032;2023-08-20T12:05:03;1007.54;;;26.06;54.81152
80911;BME280;70359;51.420;7.032;2023-08-20T12:07:28;1007.526;;;26.1;55.0625
80911;BME280;70359;51.420;7.032;2023-08-20T12:09:53;1007.569;;;26.06;54.95313
80911;BME280;70359;51.420;7.032;2023-08-20T12:12:18;1007.546;;;26.1;54.33594
80911;BME280;70359;51.420;7.032;2023-08-20T12:14:43;1007.507;;;26.08;55.28418
80911;BME280;70359;51.420;7.032;2023-08-20T12:17:08;1007.472;;;26.13;54.50195
80911;BME280;70359;51.420;7.032;2023-08-20T12:19:33;1007.455;;;26.12;55.21777
80911;BME280;70359;51.420;7.032;2023-08-20T12:21:58;1007.448;;;26.17;53.21582
80911;BME280;70359;51.420;7.032;2023-08-20T12:24:23;1007.462;;;26.11;54.59473
80911;BME280;70359;51.420;7.032;2023-08-20T12:26:48;1007.423;;;26.09;52.7959
80911;BME280;70359;51.420;7.032;2023-08-20T12:29:13;1007.412;;;26.14;53.65918
80911;BME280;70359;51.420;7.032;2023-08-20T12:31:38;1007.422;;;26.19;53.72363
80911;BME280;70359;51.420;7.032;2023-08-20T12:34:03;1007.423;;;26.15;53.63672